sensor_id;sensor_type;location;lat;lon;timestamp;P1;durP1;ratioP1;P2;durP2;ratioP2
24619;SDS011;12763;55.802;37.404;2022-09-09T00:01:02;4.93;;;2.60;;
24619;SDS011;12763;55.802;37.404;2022-09-09T00:03:37;6.75;;;2.50;;
24619;SDS011;12763;55.802;37.404;2022-09-09T00:06:34;4.93;;;2.70;;
24619;SDS011;12763;55.802;37.404;2022-09-09T00:09:07;4.18;;;2.63;;
24619;SDS011;12763;55.802;37.404;2022-09-09T00:14:23;5.72;;;3.33;;
24619;SDS011;12763;55.802;37.404;2022-09-09T00:17:01;7.00;;;2.97;;
24619;SDS011;12763;55.802;37.404;2022-09-09T00:19:37;5.00;;;2.50;;
24619;SDS011;12763;55.802;37.404;2022-09-09T00:22:16;5.38;;;2.63;;
24619;SDS011;12763;55.802;37.404;2022-09-09T00:27:19;4.53;;;2.88;;
24619;SDS011;12763;55.802;37.404;2022-09-09T00:30:12;3.90;;;2.33;;
24619;SDS011;12763;55.802;37.404;2022-09-09T00:32:47;3.42;;;2.60;;
24619;SDS011;12763;55.802;37.404;2022-09-09T00:35:16;4.78;;;3.00;;
24619;SDS011;12763;55.802;37.404;2022-09-09T00:37:48;4.55;;;2.92;;
24619;SDS011;12763;55.802;37.404;2022-09-09T00:42:51;3.67;;;2.45;;
24619;SDS011;12763;55.802;37.404;2022-09-09T00:47:57;5.22;;;3.08;;
24619;SDS011;12763;55.802;37.404;2022-09-09T00:56:01;4.20;;;2.70;;
24619;SDS011;12763;55.802;37.404;2022-09-09T00:58:33;2.85;;;2.50;;
24619;SDS011;12763;55.802;37.404;2022-09-09T01:01:04;5.88;;;2.88;;
24619;SDS011;12763;55.802;37.404;2022-09-09T01:03:38;4.30;;;2.65;;
24619;SDS011;12763;55.802;37.404;2022-09-09T01:22:14;5.72;;;2.75;;
24619;SDS011;12763;55.802;37.404;2022-09-09T01:25:27;2.95;;;2.20;;
24619;SDS011;12763;55.802;37.404;2022-09-09T01:27:50;4.88;;;2.63;;
24619;SDS011;12763;55.802;37.404;2022-09-09T01:30:19;7.38;;;3.00;;
24619;SDS011;12763;55.802;37.404;2022-09-09T01:35:21;4.55;;;2.63;;
24619;SDS011;12763;55.802;37.404;2022-09-09T01:40:26;6.57;;;2.42;;
24619;SDS011;12763;55.802;37.404;2022-09-09T01:42:54;3.63;;;2.33;;
24619;SDS011;12763;55.802;37.404;2022-09-09T01:45:20;5.68;;;2.83;;
24619;SDS011;12763;55.802;37.404;2022-09-09T01:47:48;4.75;;;2.47;;
24619;SDS011;12763;55.802;37.404;2022-09-09T01:50:24;4.95;;;2.42;;
24619;SDS011;12763;55.802;37.404;2022-09-09T01:52:57;6.75;;;2.45;;
24619;SDS011;12763;55.802;37.404;2022-09-09T01:55:32;3.08;;;2.40;;
24619;SDS011;12763;55.802;37.404;2022-09-09T02:00:56;6.53;;;2.60;;
24619;SDS011;12763;55.802;37.404;2022-09-09T02:03:47;3.38;;;2.08;;
24619;SDS011;12763;55.802;37.404;2022-09-09T02:08:56;2.33;;;2.00;;
24619;SDS011;12763;55.802;37.404;2022-09-09T02:11:26;3.10;;;2.10;;
24619;SDS011;12763;55.802;37.404;2022-09-09T02:14:12;2.97;;;2.00;;
24619;SDS011;12763;55.802;37.404;2022-09-09T02:16:50;3.88;;;2.40;;
24619;SDS011;12763;55.802;37.404;2022-09-09T02:19:30;5.75;;;2.33;;
24619;SDS011;12763;55.802;37.404;2022-09-09T02:22:09;6.70;;;2.17;;
24619;SDS011;12763;55.802;37.404;2022-09-09T02:24:37;4.63;;;2.83;;
24619;SDS011;12763;55.802;37.404;2022-09-09T02:27:20;2.65;;;2.05;;
24619;SDS011;12763;55.802;37.404;2022-09-09T02:29:47;4.13;;;2.38;;
24619;SDS011;12763;55.802;37.404;2022-09-09T02:32:22;3.10;;;2.15;;
24619;SDS011;12763;55.802;37.404;2022-09-09T02:35:11;4.60;;;2.20;;
24619;SDS011;12763;55.802;37.404;2022-09-09T02:37:41;3.03;;;2.05;;
24619;SDS011;12763;55.802;37.404;2022-09-09T02:40:12;3.92;;;2.20;;
24619;SDS011;12763;55.802;37.404;2022-09-09T02:42:45;4.50;;;2.33;;
24619;SDS011;12763;55.802;37.404;2022-09-09T02:45:14;5.13;;;2.17;;
24619;SDS011;12763;55.802;37.404;2022-09-09T02:47:55;4.90;;;2.45;;
24619;SDS011;12763;55.802;37.404;2022-09-09T02:50:33;5.78;;;2.15;;
24619;SDS011;12763;55.802;37.404;2022-09-09T02:53:10;3.40;;;2.58;;
24619;SDS011;12763;55.802;37.404;2022-09-09T02:55:55;2.55;;;2.30;;
24619;SDS011;12763;55.802;37.404;2022-09-09T02:58:31;4.47;;;2.25;;
24619;SDS011;12763;55.802;37.404;2022-09-09T03:01:01;4.63;;;2.50;;
24619;SDS011;12763;55.802;37.404;2022-09-09T03:03:29;5.07;;;2.42;;
24619;SDS011;12763;55.802;37.404;2022-09-09T03:05:57;3.47;;;2.25;;
24619;SDS011;12763;55.802;37.404;2022-09-09T03:08:25;5.53;;;2.58;;
24619;SDS011;12763;55.802;37.404;2022-09-09T03:10:57;5.10;;;2.90;;
24619;SDS011;12763;55.802;37.404;2022-09-09T03:13:28;5.95;;;2.63;;
24619;SDS011;12763;55.802;37.404;2022-09-09T03:15:54;2.63;;;2.25;;
24619;SDS011;12763;55.802;37.404;2022-09-09T03:18:21;3.45;;;2.58;;
24619;SDS011;12763;55.802;37.404;2022-09-09T03:20:50;3.50;;;2.28;;
24619;SDS011;12763;55.802;37.404;2022-09-09T03:23:18;4.75;;;2.25;;
24619;SDS011;12763;55.802;37.404;2022-09-09T03:25:49;9.40;;;2.55;;
24619;SDS011;12763;55.802;37.404;2022-09-09T03:28:18;4.13;;;2.40;;
24619;SDS011;12763;55.802;37.404;2022-09-09T03:30:47;4.78;;;2.35;;
24619;SDS011;12763;55.802;37.404;2022-09-09T03:33:14;3.67;;;2.70;;
24619;SDS011;12763;55.802;37.404;2022-09-09T03:35:49;5.53;;;2.40;;
24619;SDS011;12763;55.802;37.404;2022-09-09T03:38:18;3.88;;;2.50;;
24619;SDS011;12763;55.802;37.404;2022-09-09T03:40:48;4.15;;;2.63;;
24619;SDS011;12763;55.802;37.404;2022-09-09T03:43:21;2.60;;;2.35;;
24619;SDS011;12763;55.802;37.404;2022-09-09T03:45:50;3.03;;;2.40;;
24619;SDS011;12763;55.802;37.404;2022-09-09T03:48:24;3.33;;;2.35;;
24619;SDS011;12763;55.802;37.404;2022-09-09T03:50:52;5.47;;;2.42;;
24619;SDS011;12763;55.802;37.404;2022-09-09T03:53:23;4.93;;;2.45;;
24619;SDS011;12763;55.802;37.404;2022-09-09T03:55:52;4.55;;;2.22;;
24619;SDS011;12763;55.802;37.404;2022-09-09T03:58:22;7.85;;;2.90;;
24619;SDS011;12763;55.802;37.404;2022-09-09T04:00:57;3.90;;;2.60;;
24619;SDS011;12763;55.802;37.404;2022-09-09T04:03:44;4.82;;;2.92;;
24619;SDS011;12763;55.802;37.404;2022-09-09T04:06:10;6.78;;;3.10;;
24619;SDS011;12763;55.802;37.404;2022-09-09T04:08:41;3.90;;;2.78;;
24619;SDS011;12763;55.802;37.404;2022-09-09T04:11:08;5.03;;;2.97;;
24619;SDS011;12763;55.802;37.404;2022-09-09T04:13:37;6.60;;;3.58;;
24619;SDS011;12763;55.802;37.404;2022-09-09T04:16:06;4.60;;;2.97;;
24619;SDS011;12763;55.802;37.404;2022-09-09T04:18:37;4.18;;;2.78;;
24619;SDS011;12763;55.802;37.404;2022-09-09T04:21:03;3.88;;;2.83;;
24619;SDS011;12763;55.802;37.404;2022-09-09T04:23:32;6.07;;;3.47;;
24619;SDS011;12763;55.802;37.404;2022-09-09T04:26:00;3.95;;;2.90;;
24619;SDS011;12763;55.802;37.404;2022-09-09T04:28:29;3.92;;;2.67;;
24619;SDS011;12763;55.802;37.404;2022-09-09T04:30:57;6.47;;;2.95;;
24619;SDS011;12763;55.802;37.404;2022-09-09T04:33:30;4.70;;;2.90;;
24619;SDS011;12763;55.802;37.404;2022-09-09T04:35:57;9.38;;;3.25;;
24619;SDS011;12763;55.802;37.404;2022-09-09T04:38:24;4.57;;;3.05;;
24619;SDS011;12763;55.802;37.404;2022-09-09T04:40:52;8.52;;;2.90;;
24619;SDS011;12763;55.802;37.404;2022-09-09T04:43:20;5.78;;;3.42;;
24619;SDS011;12763;55.802;37.404;2022-09-09T04:45:48;4.38;;;2.97;;
24619;SDS011;12763;55.802;37.404;2022-09-09T04:48:19;6.53;;;2.55;;
24619;SDS011;12763;55.802;37.404;2022-09-09T04:51:21;6.15;;;2.83;;
24619;SDS011;12763;55.802;37.404;2022-09-09T04:53:41;5.57;;;3.25;;
24619;SDS011;12763;55.802;37.404;2022-09-09T04:56:08;4.63;;;3.00;;
24619;SDS011;12763;55.802;37.404;2022-09-09T04:58:43;4.43;;;3.15;;
24619;SDS011;12763;55.802;37.404;2022-09-09T05:01:11;6.85;;;2.65;;
24619;SDS011;12763;55.802;37.404;2022-09-09T05:03:44;5.22;;;2.80;;
24619;SDS011;12763;55.802;37.404;2022-09-09T05:06:13;5.03;;;2.60;;
24619;SDS011;12763;55.802;37.404;2022-09-09T05:08:41;4.93;;;2.85;;
24619;SDS011;12763;55.802;37.404;2022-09-09T05:11:51;6.38;;;3.10;;
24619;SDS011;12763;55.802;37.404;2022-09-09T05:14:05;7.25;;;2.67;;
24619;SDS011;12763;55.802;37.404;2022-09-09T05:16:31;7.45;;;2.88;;
24619;SDS011;12763;55.802;37.404;2022-09-09T05:18:57;4.15;;;2.85;;
24619;SDS011;12763;55.802;37.404;2022-09-09T05:21:27;5.00;;;2.67;;
24619;SDS011;12763;55.802;37.404;2022-09-09T05:23:54;3.10;;;2.45;;
24619;SDS011;12763;55.802;37.404;2022-09-09T05:26:21;8.35;;;3.03;;
24619;SDS011;12763;55.802;37.404;2022-09-09T05:28:50;8.05;;;2.88;;
24619;SDS011;12763;55.802;37.404;2022-09-09T05:31:17;5.50;;;2.90;;
24619;SDS011;12763;55.802;37.404;2022-09-09T05:33:47;3.60;;;2.50;;
24619;SDS011;12763;55.802;37.404;2022-09-09T05:36:16;6.10;;;2.85;;
24619;SDS011;12763;55.802;37.404;2022-09-09T05:38:45;9.55;;;3.17;;
24619;SDS011;12763;55.802;37.404;2022-09-09T05:41:13;6.03;;;3.25;;
24619;SDS011;12763;55.802;37.404;2022-09-09T05:43:43;4.45;;;2.50;;
24619;SDS011;12763;55.802;37.404;2022-09-09T05:46:13;5.18;;;2.42;;
24619;SDS011;12763;55.802;37.404;2022-09-09T05:48:41;4.80;;;2.78;;
24619;SDS011;12763;55.802;37.404;2022-09-09T05:51:13;6.55;;;2.70;;
24619;SDS011;12763;55.802;37.404;2022-09-09T05:53:42;8.82;;;3.20;;
24619;SDS011;12763;55.802;37.404;2022-09-09T05:56:10;7.80;;;2.78;;
24619;SDS011;12763;55.802;37.404;2022-09-09T05:58:38;3.78;;;2.70;;
24619;SDS011;12763;55.802;37.404;2022-09-09T06:01:08;5.32;;;2.55;;
24619;SDS011;12763;55.802;37.404;2022-09-09T06:03:41;4.20;;;2.97;;
24619;SDS011;12763;55.802;37.404;2022-09-09T06:06:13;4.05;;;2.20;;
24619;SDS011;12763;55.802;37.404;2022-09-09T06:08:42;6.22;;;2.45;;
24619;SDS011;12763;55.802;37.404;2022-09-09T06:11:17;7.43;;;2.40;;
24619;SDS011;12763;55.802;37.404;2022-09-09T06:13:45;4.25;;;2.58;;
24619;SDS011;12763;55.802;37.404;2022-09-09T06:16:12;8.30;;;2.58;;
24619;SDS011;12763;55.802;37.404;2022-09-09T06:18:43;6.78;;;2.80;;
24619;SDS011;12763;55.802;37.404;2022-09-09T06:21:20;6.93;;;1.85;;
24619;SDS011;12763;55.802;37.404;2022-09-09T06:23:48;4.93;;;2.55;;
24619;SDS011;12763;55.802;37.404;2022-09-09T06:26:15;3.83;;;1.90;;
24619;SDS011;12763;55.802;37.404;2022-09-09T06:28:53;3.22;;;1.60;;
24619;SDS011;12763;55.802;37.404;2022-09-09T06:31:21;2.20;;;1.70;;
24619;SDS011;12763;55.802;37.404;2022-09-09T06:33:50;9.75;;;2.22;;
24619;SDS011;12763;55.802;37.404;2022-09-09T06:36:20;2.00;;;1.33;;
24619;SDS011;12763;55.802;37.404;2022-09-09T06:38:48;5.28;;;2.80;;
24619;SDS011;12763;55.802;37.404;2022-09-09T06:41:15;6.60;;;2.03;;
24619;SDS011;12763;55.802;37.404;2022-09-09T06:43:47;3.58;;;1.65;;
24619;SDS011;12763;55.802;37.404;2022-09-09T06:46:16;3.05;;;1.50;;
24619;SDS011;12763;55.802;37.404;2022-09-09T06:48:45;3.50;;;1.95;;
24619;SDS011;12763;55.802;37.404;2022-09-09T06:51:18;3.25;;;1.88;;
24619;SDS011;12763;55.802;37.404;2022-09-09T06:53:52;3.42;;;1.85;;
24619;SDS011;12763;55.802;37.404;2022-09-09T06:56:27;2.85;;;1.50;;
24619;SDS011;12763;55.802;37.404;2022-09-09T07:01:26;2.70;;;1.25;;
24619;SDS011;12763;55.802;37.404;2022-09-09T07:03:58;1.55;;;1.15;;
24619;SDS011;12763;55.802;37.404;2022-09-09T07:06:27;3.15;;;1.27;;
24619;SDS011;12763;55.802;37.404;2022-09-09T07:09:01;2.67;;;0.80;;
24619;SDS011;12763;55.802;37.404;2022-09-09T07:11:31;1.58;;;1.10;;
24619;SDS011;12763;55.802;37.404;2022-09-09T07:14:00;2.60;;;1.15;;
24619;SDS011;12763;55.802;37.404;2022-09-09T07:16:26;1.75;;;1.20;;
24619;SDS011;12763;55.802;37.404;2022-09-09T07:18:54;4.00;;;1.40;;
24619;SDS011;12763;55.802;37.404;2022-09-09T07:21:27;1.67;;;0.90;;
24619;SDS011;12763;55.802;37.404;2022-09-09T07:23:55;2.10;;;1.08;;
24619;SDS011;12763;55.802;37.404;2022-09-09T07:26:26;1.77;;;0.70;;
24619;SDS011;12763;55.802;37.404;2022-09-09T07:28:55;0.85;;;0.80;;
24619;SDS011;12763;55.802;37.404;2022-09-09T07:31:27;1.55;;;1.00;;
24619;SDS011;12763;55.802;37.404;2022-09-09T07:33:58;3.10;;;1.00;;
24619;SDS011;12763;55.802;37.404;2022-09-09T07:36:29;1.45;;;1.13;;
24619;SDS011;12763;55.802;37.404;2022-09-09T07:38:58;1.83;;;1.35;;
24619;SDS011;12763;55.802;37.404;2022-09-09T07:41:28;1.83;;;1.10;;
24619;SDS011;12763;55.802;37.404;2022-09-09T07:44:04;1.58;;;1.08;;
24619;SDS011;12763;55.802;37.404;2022-09-09T07:46:32;1.02;;;0.80;;
24619;SDS011;12763;55.802;37.404;2022-09-09T07:49:00;1.88;;;1.10;;
24619;SDS011;12763;55.802;37.404;2022-09-09T07:51:34;4.57;;;1.70;;
24619;SDS011;12763;55.802;37.404;2022-09-09T07:54:03;1.20;;;1.00;;
24619;SDS011;12763;55.802;37.404;2022-09-09T07:56:32;2.28;;;1.15;;
24619;SDS011;12763;55.802;37.404;2022-09-09T07:58:59;3.65;;;1.05;;
24619;SDS011;12763;55.802;37.404;2022-09-09T08:01:27;4.53;;;2.00;;
24619;SDS011;12763;55.802;37.404;2022-09-09T08:04:00;7.60;;;1.50;;
24619;SDS011;12763;55.802;37.404;2022-09-09T08:06:30;1.80;;;1.05;;
24619;SDS011;12763;55.802;37.404;2022-09-09T08:08:59;1.73;;;0.90;;
24619;SDS011;12763;55.802;37.404;2022-09-09T08:11:27;1.70;;;1.23;;
24619;SDS011;12763;55.802;37.404;2022-09-09T08:13:54;5.22;;;1.35;;
24619;SDS011;12763;55.802;37.404;2022-09-09T08:16:22;1.83;;;1.27;;
24619;SDS011;12763;55.802;37.404;2022-09-09T08:18:50;1.30;;;1.17;;
24619;SDS011;12763;55.802;37.404;2022-09-09T08:21:19;4.43;;;1.10;;
24619;SDS011;12763;55.802;37.404;2022-09-09T08:23:47;2.67;;;1.20;;
24619;SDS011;12763;55.802;37.404;2022-09-09T08:26:15;1.17;;;1.00;;
24619;SDS011;12763;55.802;37.404;2022-09-09T08:28:44;4.05;;;1.42;;
24619;SDS011;12763;55.802;37.404;2022-09-09T08:31:12;1.50;;;1.20;;
24619;SDS011;12763;55.802;37.404;2022-09-09T08:33:41;2.30;;;0.95;;
24619;SDS011;12763;55.802;37.404;2022-09-09T08:36:15;1.05;;;0.95;;
24619;SDS011;12763;55.802;37.404;2022-09-09T08:38:50;12.90;;;1.60;;
24619;SDS011;12763;55.802;37.404;2022-09-09T08:50:01;3.58;;;0.80;;
24619;SDS011;12763;55.802;37.404;2022-09-09T08:58:34;1.10;;;0.75;;
24619;SDS011;12763;55.802;37.404;2022-09-09T09:01:29;1.23;;;1.00;;
24619;SDS011;12763;55.802;37.404;2022-09-09T09:04:29;1.10;;;1.00;;
24619;SDS011;12763;55.802;37.404;2022-09-09T09:12:22;1.88;;;0.95;;
24619;SDS011;12763;55.802;37.404;2022-09-09T09:14:51;1.08;;;0.98;;
24619;SDS011;12763;55.802;37.404;2022-09-09T09:17:19;1.45;;;1.00;;
24619;SDS011;12763;55.802;37.404;2022-09-09T09:19:48;1.88;;;1.02;;
24619;SDS011;12763;55.802;37.404;2022-09-09T09:30:47;8.05;;;1.10;;
24619;SDS011;12763;55.802;37.404;2022-09-09T09:36:07;3.85;;;2.10;;
24619;SDS011;12763;55.802;37.404;2022-09-09T09:38:36;3.97;;;1.23;;
24619;SDS011;12763;55.802;37.404;2022-09-09T09:41:03;4.07;;;1.30;;
24619;SDS011;12763;55.802;37.404;2022-09-09T09:43:34;8.70;;;3.38;;
24619;SDS011;12763;55.802;37.404;2022-09-09T09:46:17;0.88;;;0.88;;
24619;SDS011;12763;55.802;37.404;2022-09-09T09:48:56;3.65;;;1.40;;
24619;SDS011;12763;55.802;37.404;2022-09-09T09:51:31;3.70;;;0.90;;
24619;SDS011;12763;55.802;37.404;2022-09-09T09:54:06;4.22;;;0.98;;
24619;SDS011;12763;55.802;37.404;2022-09-09T09:56:39;1.70;;;1.05;;
24619;SDS011;12763;55.802;37.404;2022-09-09T09:59:21;2.55;;;0.90;;
24619;SDS011;12763;55.802;37.404;2022-09-09T10:01:53;1.70;;;0.80;;
24619;SDS011;12763;55.802;37.404;2022-09-09T10:04:21;4.43;;;1.35;;
24619;SDS011;12763;55.802;37.404;2022-09-09T10:06:54;2.45;;;1.05;;
24619;SDS011;12763;55.802;37.404;2022-09-09T10:09:27;0.80;;;0.80;;
24619;SDS011;12763;55.802;37.404;2022-09-09T10:14:37;7.50;;;2.78;;
24619;SDS011;12763;55.802;37.404;2022-09-09T10:23:27;1.23;;;0.90;;
24619;SDS011;12763;55.802;37.404;2022-09-09T10:34:17;3.92;;;0.90;;
24619;SDS011;12763;55.802;37.404;2022-09-09T10:36:58;1.02;;;0.50;;
24619;SDS011;12763;55.802;37.404;2022-09-09T10:49:57;2.28;;;1.48;;
24619;SDS011;12763;55.802;37.404;2022-09-09T10:55:27;3.80;;;1.33;;
24619;SDS011;12763;55.802;37.404;2022-09-09T10:57:56;0.98;;;0.80;;
24619;SDS011;12763;55.802;37.404;2022-09-09T11:00:25;1.42;;;0.93;;
24619;SDS011;12763;55.802;37.404;2022-09-09T11:03:03;1.25;;;0.73;;
24619;SDS011;12763;55.802;37.404;2022-09-09T11:05:39;1.08;;;0.93;;
24619;SDS011;12763;55.802;37.404;2022-09-09T11:08:18;1.00;;;0.90;;
24619;SDS011;12763;55.802;37.404;2022-09-09T11:16:01;1.30;;;1.05;;
24619;SDS011;12763;55.802;37.404;2022-09-09T11:18:38;1.85;;;0.90;;
24619;SDS011;12763;55.802;37.404;2022-09-09T11:21:12;1.35;;;0.95;;
24619;SDS011;12763;55.802;37.404;2022-09-09T11:23:48;1.52;;;1.05;;
24619;SDS011;12763;55.802;37.404;2022-09-09T11:26:30;1.50;;;0.93;;
24619;SDS011;12763;55.802;37.404;2022-09-09T11:29:45;1.50;;;1.20;;
24619;SDS011;12763;55.802;37.404;2022-09-09T11:32:09;1.02;;;0.73;;
24619;SDS011;12763;55.802;37.404;2022-09-09T11:34:53;1.00;;;0.90;;
24619;SDS011;12763;55.802;37.404;2022-09-09T11:37:42;1.50;;;1.30;;
24619;SDS011;12763;55.802;37.404;2022-09-09T11:42:45;2.65;;;0.95;;
24619;SDS011;12763;55.802;37.404;2022-09-09T11:45:25;1.58;;;0.98;;
24619;SDS011;12763;55.802;37.404;2022-09-09T11:47:55;1.30;;;0.73;;
24619;SDS011;12763;55.802;37.404;2022-09-09T11:52:49;1.15;;;0.90;;
24619;SDS011;12763;55.802;37.404;2022-09-09T11:55:25;0.82;;;0.70;;
24619;SDS011;12763;55.802;37.404;2022-09-09T11:57:58;6.05;;;1.08;;
24619;SDS011;12763;55.802;37.404;2022-09-09T12:00:33;0.70;;;0.70;;
24619;SDS011;12763;55.802;37.404;2022-09-09T12:05:56;1.30;;;0.90;;
24619;SDS011;12763;55.802;37.404;2022-09-09T12:08:27;1.23;;;0.93;;
24619;SDS011;12763;55.802;37.404;2022-09-09T12:10:56;0.90;;;0.80;;
24619;SDS011;12763;55.802;37.404;2022-09-09T12:13:25;1.77;;;1.05;;
24619;SDS011;12763;55.802;37.404;2022-09-09T12:15:53;0.80;;;0.80;;
24619;SDS011;12763;55.802;37.404;2022-09-09T12:20:57;0.50;;;0.50;;
24619;SDS011;12763;55.802;37.404;2022-09-09T12:26:22;0.80;;;0.77;;
24619;SDS011;12763;55.802;37.404;2022-09-09T12:29:08;0.80;;;0.77;;
24619;SDS011;12763;55.802;37.404;2022-09-09T12:32:02;2.78;;;0.80;;
24619;SDS011;12763;55.802;37.404;2022-09-09T12:34:43;1.92;;;1.25;;
24619;SDS011;12763;55.802;37.404;2022-09-09T12:37:17;2.35;;;0.77;;
24619;SDS011;12763;55.802;37.404;2022-09-09T12:40:05;1.20;;;0.88;;
24619;SDS011;12763;55.802;37.404;2022-09-09T12:42:44;0.50;;;0.50;;
24619;SDS011;12763;55.802;37.404;2022-09-09T12:51:00;1.52;;;0.90;;
24619;SDS011;12763;55.802;37.404;2022-09-09T12:53:25;3.65;;;1.63;;
24619;SDS011;12763;55.802;37.404;2022-09-09T12:56:39;0.88;;;0.75;;
24619;SDS011;12763;55.802;37.404;2022-09-09T12:58:45;1.00;;;0.82;;
24619;SDS011;12763;55.802;37.404;2022-09-09T13:03:56;1.30;;;1.00;;
24619;SDS011;12763;55.802;37.404;2022-09-09T13:08:51;0.90;;;0.80;;
24619;SDS011;12763;55.802;37.404;2022-09-09T13:11:21;2.00;;;1.00;;
24619;SDS011;12763;55.802;37.404;2022-09-09T13:14:02;1.70;;;1.07;;
24619;SDS011;12763;55.802;37.404;2022-09-09T13:16:29;1.40;;;1.15;;
24619;SDS011;12763;55.802;37.404;2022-09-09T13:19:01;5.07;;;1.20;;
24619;SDS011;12763;55.802;37.404;2022-09-09T13:21:34;2.63;;;1.30;;
24619;SDS011;12763;55.802;37.404;2022-09-09T13:24:23;2.40;;;1.10;;
24619;SDS011;12763;55.802;37.404;2022-09-09T13:26:57;3.88;;;1.67;;
24619;SDS011;12763;55.802;37.404;2022-09-09T13:29:29;3.73;;;1.87;;
24619;SDS011;12763;55.802;37.404;2022-09-09T13:32:04;3.67;;;2.25;;
24619;SDS011;12763;55.802;37.404;2022-09-09T13:34:32;6.40;;;2.47;;
24619;SDS011;12763;55.802;37.404;2022-09-09T13:37:05;7.53;;;3.15;;
24619;SDS011;12763;55.802;37.404;2022-09-09T13:39:32;8.25;;;4.72;;
24619;SDS011;12763;55.802;37.404;2022-09-09T13:42:02;10.90;;;6.22;;
24619;SDS011;12763;55.802;37.404;2022-09-09T13:44:31;13.40;;;5.70;;
24619;SDS011;12763;55.802;37.404;2022-09-09T13:49:28;11.05;;;5.30;;
24619;SDS011;12763;55.802;37.404;2022-09-09T13:52:04;13.50;;;5.57;;
24619;SDS011;12763;55.802;37.404;2022-09-09T13:54:39;12.30;;;4.85;;
24619;SDS011;12763;55.802;37.404;2022-09-09T13:57:14;6.55;;;4.10;;
24619;SDS011;12763;55.802;37.404;2022-09-09T13:59:48;7.03;;;4.22;;
24619;SDS011;12763;55.802;37.404;2022-09-09T14:02:15;6.63;;;3.97;;
24619;SDS011;12763;55.802;37.404;2022-09-09T14:04:42;8.50;;;3.00;;
24619;SDS011;12763;55.802;37.404;2022-09-09T14:07:10;6.88;;;3.50;;
24619;SDS011;12763;55.802;37.404;2022-09-09T14:09:42;4.18;;;2.60;;
24619;SDS011;12763;55.802;37.404;2022-09-09T14:12:10;5.35;;;2.45;;
24619;SDS011;12763;55.802;37.404;2022-09-09T14:14:37;4.18;;;2.38;;
24619;SDS011;12763;55.802;37.404;2022-09-09T14:17:04;6.15;;;2.22;;
24619;SDS011;12763;55.802;37.404;2022-09-09T14:19:33;5.05;;;2.30;;
24619;SDS011;12763;55.802;37.404;2022-09-09T14:21:59;3.53;;;2.03;;
24619;SDS011;12763;55.802;37.404;2022-09-09T14:24:28;4.63;;;2.20;;
24619;SDS011;12763;55.802;37.404;2022-09-09T14:26:54;4.55;;;3.45;;
24619;SDS011;12763;55.802;37.404;2022-09-09T14:29:20;3.85;;;1.92;;
24619;SDS011;12763;55.802;37.404;2022-09-09T14:31:46;4.57;;;1.60;;
24619;SDS011;12763;55.802;37.404;2022-09-09T14:34:12;6.20;;;1.98;;
24619;SDS011;12763;55.802;37.404;2022-09-09T14:36:39;4.35;;;1.80;;
24619;SDS011;12763;55.802;37.404;2022-09-09T14:39:07;3.80;;;1.70;;
24619;SDS011;12763;55.802;37.404;2022-09-09T14:41:33;10.27;;;1.80;;
24619;SDS011;12763;55.802;37.404;2022-09-09T14:43:59;5.43;;;1.80;;
24619;SDS011;12763;55.802;37.404;2022-09-09T14:46:25;4.43;;;1.92;;
24619;SDS011;12763;55.802;37.404;2022-09-09T14:48:52;5.85;;;2.00;;
24619;SDS011;12763;55.802;37.404;2022-09-09T14:51:23;6.90;;;2.10;;
24619;SDS011;12763;55.802;37.404;2022-09-09T14:53:57;5.70;;;1.90;;
24619;SDS011;12763;55.802;37.404;2022-09-09T14:56:28;5.32;;;2.10;;
24619;SDS011;12763;55.802;37.404;2022-09-09T14:58:56;4.90;;;1.73;;
24619;SDS011;12763;55.802;37.404;2022-09-09T15:01:24;6.43;;;2.53;;
24619;SDS011;12763;55.802;37.404;2022-09-09T15:03:57;4.85;;;2.22;;
24619;SDS011;12763;55.802;37.404;2022-09-09T15:06:29;9.30;;;2.25;;
24619;SDS011;12763;55.802;37.404;2022-09-09T15:08:58;2.88;;;1.60;;
24619;SDS011;12763;55.802;37.404;2022-09-09T15:11:26;3.40;;;1.85;;
24619;SDS011;12763;55.802;37.404;2022-09-09T15:13:57;5.05;;;2.22;;
24619;SDS011;12763;55.802;37.404;2022-09-09T15:16:25;3.88;;;2.08;;
24619;SDS011;12763;55.802;37.404;2022-09-09T15:18:54;5.28;;;1.95;;
24619;SDS011;12763;55.802;37.404;2022-09-09T15:21:22;4.32;;;1.70;;
24619;SDS011;12763;55.802;37.404;2022-09-09T15:23:51;6.45;;;2.20;;
24619;SDS011;12763;55.802;37.404;2022-09-09T15:26:17;3.38;;;1.75;;
24619;SDS011;12763;55.802;37.404;2022-09-09T15:28:44;2.70;;;1.92;;
24619;SDS011;12763;55.802;37.404;2022-09-09T15:31:14;4.03;;;1.90;;
24619;SDS011;12763;55.802;37.404;2022-09-09T15:33:48;4.55;;;1.58;;
24619;SDS011;12763;55.802;37.404;2022-09-09T15:36:15;2.65;;;1.80;;
24619;SDS011;12763;55.802;37.404;2022-09-09T15:38:43;6.43;;;1.83;;
24619;SDS011;12763;55.802;37.404;2022-09-09T15:41:11;4.22;;;2.03;;
24619;SDS011;12763;55.802;37.404;2022-09-09T15:43:37;3.40;;;2.17;;
24619;SDS011;12763;55.802;37.404;2022-09-09T15:46:08;5.78;;;2.00;;
24619;SDS011;12763;55.802;37.404;2022-09-09T15:48:49;2.03;;;1.20;;
24619;SDS011;12763;55.802;37.404;2022-09-09T15:51:16;4.03;;;1.50;;
24619;SDS011;12763;55.802;37.404;2022-09-09T15:53:42;5.22;;;1.92;;
24619;SDS011;12763;55.802;37.404;2022-09-09T15:56:08;4.07;;;1.80;;
24619;SDS011;12763;55.802;37.404;2022-09-09T15:58:35;5.40;;;1.60;;
24619;SDS011;12763;55.802;37.404;2022-09-09T16:01:05;5.03;;;2.15;;
24619;SDS011;12763;55.802;37.404;2022-09-09T16:03:36;5.82;;;2.05;;
24619;SDS011;12763;55.802;37.404;2022-09-09T16:06:04;9.18;;;3.78;;
24619;SDS011;12763;55.802;37.404;2022-09-09T16:08:31;7.50;;;2.20;;
24619;SDS011;12763;55.802;37.404;2022-09-09T16:11:08;6.28;;;2.30;;
24619;SDS011;12763;55.802;37.404;2022-09-09T16:13:36;11.30;;;2.72;;
24619;SDS011;12763;55.802;37.404;2022-09-09T16:16:03;7.10;;;3.72;;
24619;SDS011;12763;55.802;37.404;2022-09-09T16:18:33;3.00;;;1.98;;
24619;SDS011;12763;55.802;37.404;2022-09-09T16:21:04;7.28;;;2.15;;
24619;SDS011;12763;55.802;37.404;2022-09-09T16:23:31;4.68;;;2.60;;
24619;SDS011;12763;55.802;37.404;2022-09-09T16:25:58;7.78;;;3.25;;
24619;SDS011;12763;55.802;37.404;2022-09-09T16:28:24;7.10;;;2.97;;
24619;SDS011;12763;55.802;37.404;2022-09-09T16:30:50;7.32;;;2.63;;
24619;SDS011;12763;55.802;37.404;2022-09-09T16:33:16;5.35;;;2.88;;
24619;SDS011;12763;55.802;37.404;2022-09-09T16:35:43;10.27;;;3.25;;
24619;SDS011;12763;55.802;37.404;2022-09-09T16:38:09;4.47;;;2.53;;
24619;SDS011;12763;55.802;37.404;2022-09-09T16:40:39;5.28;;;2.50;;
24619;SDS011;12763;55.802;37.404;2022-09-09T16:43:07;4.00;;;2.40;;
24619;SDS011;12763;55.802;37.404;2022-09-09T16:45:33;7.35;;;2.45;;
24619;SDS011;12763;55.802;37.404;2022-09-09T16:47:59;6.80;;;2.95;;
24619;SDS011;12763;55.802;37.404;2022-09-09T16:50:26;11.60;;;3.50;;
24619;SDS011;12763;55.802;37.404;2022-09-09T16:52:52;9.80;;;4.97;;
24619;SDS011;12763;55.802;37.404;2022-09-09T16:55:18;8.02;;;4.25;;
24619;SDS011;12763;55.802;37.404;2022-09-09T16:57:47;9.02;;;4.50;;
24619;SDS011;12763;55.802;37.404;2022-09-09T17:00:15;6.80;;;3.92;;
24619;SDS011;12763;55.802;37.404;2022-09-09T17:02:44;8.20;;;2.92;;
24619;SDS011;12763;55.802;37.404;2022-09-09T17:05:10;7.93;;;2.90;;
24619;SDS011;12763;55.802;37.404;2022-09-09T17:07:37;6.25;;;2.88;;
24619;SDS011;12763;55.802;37.404;2022-09-09T17:10:04;5.45;;;2.60;;
24619;SDS011;12763;55.802;37.404;2022-09-09T17:12:31;6.65;;;2.55;;
24619;SDS011;12763;55.802;37.404;2022-09-09T17:14:57;6.00;;;2.88;;
24619;SDS011;12763;55.802;37.404;2022-09-09T17:17:25;9.40;;;2.42;;